Time;durP1;ratioP1;P1;durP2;ratioP2;P2;SDS_P1;SDS_P2;PMS_P1;PMS_P2;Temp;Humidity;BMP_temperature;BMP_pressure;BME280_temperature;BME280_humidity;BME280_pressure;Samples;Min_cycle;Max_cycle;Signal;HPM_P1;HPM_P2
2022/11/26 00:00:14;;;;;;;851.03;765.93;;;5.20;99.90;;;;;;5075854;28;20825;-84
2022/11/26 00:02:41;;;;;;;858.83;775.20;;;5.20;99.90;;;;;;5075549;28;20454;-82
2022/11/26 00:05:12;;;;;;;858.53;774.80;;;5.10;99.90;;;;;;5075590;28;20958;-82
2022/11/26 00:07:40;;;;;;;858.80;773.90;;;5.20;99.90;;;;;;5075221;28;20913;-83
2022/11/26 00:10:17;;;;;;;842.70;757.53;;;5.30;99.90;;;;;;5075316;28;20454;-83
2022/11/26 00:12:44;;;;;;;831.23;747.47;;;5.40;99.90;;;;;;5074673;28;20484;-82
2022/11/26 00:15:17;;;;;;;831.97;747.73;;;5.50;99.90;;;;;;5075407;28;20466;-82
2022/11/26 00:17:43;;;;;;;827.87;744.10;;;5.50;99.90;;;;;;5074919;28;20963;-82
2022/11/26 00:20:10;;;;;;;828.70;743.57;;;5.60;99.90;;;;;;5075219;28;20454;-82
2022/11/26 00:22:41;;;;;;;837.47;752.40;;;5.60;99.90;;;;;;5075391;28;20455;-82
2022/11/26 00:25:15;;;;;;;827.03;740.67;;;5.60;99.90;;;;;;5075059;28;20446;-83
2022/11/26 00:27:42;;;;;;;840.17;754.93;;;5.60;99.90;;;;;;5075058;28;20477;-82
2022/11/26 00:30:20;;;;;;;828.93;744.23;;;5.60;99.90;;;;;;5075101;28;20460;-82
2022/11/26 00:32:47;;;;;;;835.30;750.80;;;5.70;99.90;;;;;;5075262;28;20451;-82
2022/11/26 00:35:14;;;;;;;833.33;747.03;;;5.60;99.90;;;;;;5074824;28;20451;-83
2022/11/26 00:37:44;;;;;;;853.03;766.43;;;5.70;99.90;;;;;;5075242;28;20478;-82
2022/11/26 00:40:23;;;;;;;835.10;749.73;;;5.60;99.90;;;;;;5074959;28;20843;-82
2022/11/26 00:42:51;;;;;;;840.87;754.43;;;5.50;99.90;;;;;;5074272;28;20446;-83
2022/11/26 00:45:23;;;;;;;853.83;765.37;;;5.50;99.90;;;;;;5075264;28;20457;-82
2022/11/26 00:47:49;;;;;;;857.57;769.30;;;5.50;99.90;;;;;;5075335;28;20939;-82
2022/11/26 00:50:19;;;;;;;863.43;776.60;;;5.40;99.90;;;;;;5074640;28;20457;-84
2022/11/26 00:52:47;;;;;;;858.97;773.23;;;5.40;99.90;;;;;;5075218;28;20458;-82
2022/11/26 00:55:27;;;;;;;861.63;775.97;;;5.40;99.90;;;;;;5075255;28;20459;-82
2022/11/26 00:57:54;;;;;;;873.00;786.20;;;5.40;99.90;;;;;;5075058;28;20475;-82
2022/11/26 01:00:22;;;;;;;873.80;786.30;;;5.20;99.90;;;;;;5074906;28;20454;-81
2022/11/26 01:02:49;;;;;;;882.37;794.27;;;5.20;99.90;;;;;;5075177;28;20447;-83
2022/11/26 01:05:17;;;;;;;887.67;798.17;;;5.10;99.90;;;;;;5075476;28;20450;-82
2022/11/26 01:07:44;;;;;;;883.93;795.87;;;5.10;99.90;;;;;;5075192;28;20466;-82
2022/11/26 01:10:17;;;;;;;873.30;783.30;;;5.10;99.90;;;;;;5075350;28;20466;-85
2022/11/26 01:12:46;;;;;;;849.83;762.70;;;5.30;99.90;;;;;;5075600;28;20454;-83
2022/11/26 01:15:13;;;;;;;832.13;745.47;;;5.30;99.90;;;;;;5075212;28;20446;-83
2022/11/26 01:17:40;;;;;;;834.37;747.73;;;5.40;99.90;;;;;;5076224;28;20513;-83
2022/11/26 01:20:20;;;;;;;824.70;738.93;;;5.40;99.90;;;;;;5077162;28;20451;-83
2022/11/26 01:22:47;;;;;;;834.10;748.90;;;5.20;99.90;;;;;;5076850;28;20450;-83
2022/11/26 01:25:14;;;;;;;838.47;753.77;;;5.20;99.90;;;;;;5077557;28;20457;-83
2022/11/26 01:27:40;;;;;;;866.53;779.83;;;5.10;99.90;;;;;;5076625;28;20481;-84
2022/11/26 01:30:14;;;;;;;866.97;780.47;;;5.00;99.90;;;;;;5076981;28;20820;-83
2022/11/26 01:32:41;;;;;;;867.17;779.63;;;4.90;99.90;;;;;;5076888;28;20889;-84
2022/11/26 01:35:09;;;;;;;851.40;764.90;;;4.90;99.90;;;;;;5077401;28;20461;-83
2022/11/26 01:37:36;;;;;;;848.27;760.50;;;4.70;99.90;;;;;;5077348;28;20485;-83
2022/11/26 01:40:03;;;;;;;851.00;763.63;;;4.80;99.90;;;;;;5077346;28;20883;-83
2022/11/26 01:42:40;;;;;;;845.90;760.63;;;4.80;99.90;;;;;;5078006;28;20455;-83
2022/11/26 01:45:14;;;;;;;854.90;768.70;;;4.60;99.90;;;;;;5076502;28;20453;-83
2022/11/26 01:47:42;;;;;;;857.77;771.77;;;4.60;99.90;;;;;;5078007;28;20466;-86
2022/11/26 01:50:52;;;;;;;855.67;767.93;;;4.40;99.90;;;;;;5077727;28;20457;-83
2022/11/26 01:53:27;;;;;;;843.63;756.83;;;4.50;99.90;;;;;;5078524;28;20450;-83
2022/11/26 01:55:58;;;;;;;845.47;758.80;;;4.40;99.90;;;;;;5080980;28;20480;-84
2022/11/26 01:58:29;;;;;;;850.47;761.33;;;4.40;99.90;;;;;;5081596;28;20474;-82
2022/11/26 02:00:58;;;;;;;843.33;756.47;;;4.50;99.90;;;;;;5081688;28;20461;-83
2022/11/26 02:03:25;;;;;;;831.93;745.93;;;4.50;99.90;;;;;;5081401;28;20453;-83
2022/11/26 02:05:57;;;;;;;843.80;756.27;;;4.50;99.90;;;;;;5081392;28;21002;-83
2022/11/26 02:08:28;;;;;;;835.10;750.00;;;4.50;99.90;;;;;;5082045;28;20478;-83
2022/11/26 02:10:55;;;;;;;830.93;745.83;;;4.60;99.90;;;;;;5081451;28;20450;-86
2022/11/26 02:13:22;;;;;;;825.07;738.67;;;4.60;99.90;;;;;;5082377;28;20485;-83
2022/11/26 02:15:56;;;;;;;829.67;745.40;;;4.70;99.90;;;;;;5081868;28;20902;-83
2022/11/26 02:18:28;;;;;;;832.20;748.03;;;4.70;99.90;;;;;;5082104;28;20517;-83
2022/11/26 02:21:00;;;;;;;822.60;737.97;;;4.70;99.90;;;;;;5081790;28;20451;-83
2022/11/26 02:24:12;;;;;;;822.80;739.37;;;4.80;99.90;;;;;;5081558;28;20454;-83
2022/11/26 02:27:19;;;;;;;832.63;749.13;;;4.80;99.90;;;;;;5069834;28;20509;-83
2022/11/26 02:30:06;;;;;;;824.23;740.37;;;4.80;99.90;;;;;;5024642;28;20512;-84
2022/11/26 02:32:51;;;;;;;828.07;743.73;;;4.90;99.90;;;;;;5081191;28;20502;-83
2022/11/26 02:35:24;;;;;;;851.63;766.63;;;4.80;99.90;;;;;;5081424;28;20457;-83
2022/11/26 02:37:55;;;;;;;841.43;756.40;;;4.60;99.90;;;;;;5081248;28;20463;-83
2022/11/26 02:40:24;;;;;;;841.30;757.03;;;4.70;99.90;;;;;;5080396;28;20451;-85
2022/11/26 02:42:50;;;;;;;854.83;768.07;;;4.70;99.90;;;;;;5081093;28;20965;-83
2022/11/26 02:45:23;;;;;;;862.70;777.70;;;4.60;99.90;;;;;;5080676;28;20484;-83
2022/11/26 02:47:54;;;;;;;846.57;761.03;;;4.70;99.90;;;;;;5081561;28;20454;-83
2022/11/26 02:50:25;;;;;;;861.73;775.03;;;4.60;99.90;;;;;;5081112;28;20459;-84
2022/11/26 02:52:55;;;;;;;853.40;768.17;;;4.70;99.90;;;;;;5081231;28;20453;-83
2022/11/26 02:55:27;;;;;;;884.80;798.57;;;4.50;99.90;;;;;;5081437;28;20457;-83
2022/11/26 02:57:55;;;;;;;885.43;799.67;;;4.30;99.90;;;;;;5081371;28;20484;-83
2022/11/26 03:00:24;;;;;;;890.83;804.97;;;4.10;99.90;;;;;;5080978;28;20470;-83
2022/11/26 03:02:58;;;;;;;891.43;806.30;;;3.90;99.90;;;;;;5080918;28;20446;-83
2022/11/26 03:05:27;;;;;;;897.20;811.40;;;3.80;99.90;;;;;;5060415;28;20451;-83
2022/11/26 03:07:55;;;;;;;898.53;811.93;;;3.60;99.90;;;;;;5060780;28;20456;-83
2022/11/26 03:10:25;;;;;;;904.07;815.97;;;3.50;99.90;;;;;;5080646;28;21106;-83
2022/11/26 03:12:52;;;;;;;903.37;814.67;;;3.40;99.90;;;;;;5080299;28;20439;-84
2022/11/26 03:15:19;;;;;;;888.20;798.87;;;3.50;99.90;;;;;;5080744;28;20897;-83
2022/11/26 03:17:47;;;;;;;864.13;776.67;;;3.60;99.90;;;;;;5080009;28;20844;-83
2022/11/26 03:20:14;;;;;;;875.73;788.33;;;3.80;99.90;;;;;;5079706;28;20819;-83
2022/11/26 03:22:41;;;;;;;879.13;791.13;;;3.80;99.90;;;;;;5079899;28;20446;-83
2022/11/26 03:25:09;;;;;;;881.80;794.30;;;3.80;99.90;;;;;;5081080;28;20549;-83
2022/11/26 03:27:36;;;;;;;866.83;778.70;;;3.80;99.90;;;;;;5120730;22;20486;-84
2022/11/26 03:30:03;;;;;;;870.27;782.77;;;4.10;99.90;;;;;;5080461;28;20443;-83
2022/11/26 03:32:30;;;;;;;868.40;781.20;;;4.20;99.90;;;;;;5079920;28;20456;-83
2022/11/26 03:34:58;;;;;;;881.13;795.10;;;4.10;99.90;;;;;;5080632;28;20443;-83
2022/11/26 03:37:25;;;;;;;884.77;798.70;;;3.90;99.90;;;;;;5079667;28;20505;-83
2022/11/26 03:39:51;;;;;;;899.03;812.40;;;3.70;99.90;;;;;;5079792;28;20454;-83
2022/11/26 03:42:18;;;;;;;891.93;805.13;;;3.60;99.90;;;;;;5079222;28;20951;-83
2022/11/26 03:44:45;;;;;;;900.40;812.63;;;3.50;99.90;;;;;;5079320;28;20458;-82
2022/11/26 03:47:12;;;;;;;914.97;827.07;;;3.30;99.90;;;;;;5080497;28;20466;-84
2022/11/26 03:49:38;;;;;;;911.60;824.53;;;3.20;99.90;;;;;;5080223;28;20455;-84
2022/11/26 03:52:07;;;;;;;908.37;822.00;;;3.10;99.90;;;;;;5079585;28;20446;-83
2022/11/26 03:54:33;;;;;;;913.37;825.03;;;3.10;99.90;;;;;;5080552;28;20461;-83
2022/11/26 03:57:00;;;;;;;920.50;833.27;;;3.00;99.90;;;;;;5078302;28;20557;-86
2022/11/26 03:59:27;;;;;;;915.17;827.23;;;3.10;99.90;;;;;;5079843;28;20511;-83
2022/11/26 04:01:54;;;;;;;890.07;803.23;;;3.20;99.90;;;;;;5080686;28;20457;-83
2022/11/26 04:04:20;;;;;;;880.87;796.10;;;3.20;99.90;;;;;;5083312;28;20446;-86
2022/11/26 04:06:47;;;;;;;891.47;804.47;;;3.30;99.90;;;;;;5079650;28;20478;-81
2022/11/26 04:09:15;;;;;;;893.97;809.23;;;3.20;99.90;;;;;;5079304;28;20458;-83
2022/11/26 04:11:42;;;;;;;893.70;806.90;;;3.10;99.90;;;;;;5078922;28;20457;-83
2022/11/26 04:14:09;;;;;;;894.23;807.07;;;3.00;99.90;;;;;;5075388;28;20452;-80
2022/11/26 04:16:36;;;;;;;905.97;819.53;;;3.00;99.90;;;;;;5067185;28;21063;-80
2022/11/26 04:19:03;;;;;;;885.10;799.10;;;2.90;99.90;;;;;;5076765;28;20982;-84
2022/11/26 04:21:30;;;;;;;889.27;802.77;;;3.00;99.90;;;;;;5079235;28;20461;-83
2022/11/26 04:23:57;;;;;;;900.53;814.87;;;3.00;99.90;;;;;;5076901;28;20442;-81
2022/11/26 04:26:25;;;;;;;914.53;827.77;;;2.80;99.90;;;;;;5075816;28;20479;-84
2022/11/26 04:28:52;;;;;;;914.53;825.70;;;2.80;99.90;;;;;;5077468;28;20446;-82
2022/11/26 04:31:18;;;;;;;907.80;821.20;;;2.70;99.90;;;;;;5081883;28;20451;-83
2022/11/26 04:33:45;;;;;;;916.00;826.80;;;2.60;99.90;;;;;;5080097;28;20461;-82
2022/11/26 04:36:12;;;;;;;909.50;822.07;;;2.60;99.90;;;;;;5081915;28;20484;-82
2022/11/26 04:38:39;;;;;;;914.10;827.30;;;2.60;99.90;;;;;;5082130;28;20477;-83
2022/11/26 04:41:06;;;;;;;920.37;832.27;;;2.60;99.90;;;;;;5076148;28;20457;-82
2022/11/26 04:43:34;;;;;;;926.83;838.43;;;2.70;99.90;;;;;;5058534;28;20543;-85
2022/11/26 04:46:01;;;;;;;924.87;837.20;;;2.70;99.90;;;;;;5057930;28;20471;-83
2022/11/26 04:48:27;;;;;;;918.17;832.73;;;2.80;99.90;;;;;;5058928;28;20450;-84
2022/11/26 04:50:54;;;;;;;916.27;830.27;;;2.80;99.90;;;;;;5073882;28;20447;-83
2022/11/26 04:53:21;;;;;;;916.07;830.00;;;2.80;99.90;;;;;;5076871;28;20455;-86
2022/11/26 04:55:49;;;;;;;916.00;829.10;;;2.60;99.90;;;;;;5076795;28;20450;-83
2022/11/26 04:58:15;;;;;;;928.80;840.13;;;2.70;99.90;;;;;;5078438;28;21017;-85
2022/11/26 05:00:44;;;;;;;906.17;818.40;;;2.70;99.90;;;;;;5079109;28;20450;-84
2022/11/26 05:03:10;;;;;;;924.13;836.37;;;2.70;99.90;;;;;;5078946;28;20454;-82
2022/11/26 05:05:37;;;;;;;917.30;830.73;;;2.40;99.90;;;;;;5078159;28;20462;-82
2022/11/26 05:08:04;;;;;;;924.00;837.33;;;2.30;99.90;;;;;;5077072;28;20489;-83
2022/11/26 05:10:31;;;;;;;918.40;832.53;;;2.20;99.90;;;;;;5076894;28;20482;-83
2022/11/26 05:12:58;;;;;;;913.07;826.43;;;2.10;99.90;;;;;;5076797;28;20456;-82
2022/11/26 05:15:25;;;;;;;918.73;833.13;;;2.10;99.90;;;;;;5075522;28;20449;-82
2022/11/26 05:17:53;;;;;;;924.47;838.17;;;2.10;99.90;;;;;;5072861;28;20471;-83
2022/11/26 05:20:20;;;;;;;920.03;835.93;;;2.20;99.90;;;;;;5058246;28;20451;-81
2022/11/26 05:22:46;;;;;;;910.80;825.33;;;2.00;99.90;;;;;;5055633;28;20459;-86
2022/11/26 05:25:13;;;;;;;927.43;839.90;;;2.10;99.90;;;;;;5075474;28;20446;-82
2022/11/26 05:27:40;;;;;;;928.57;842.50;;;2.10;99.90;;;;;;5076884;28;20484;-82
2022/11/26 05:30:09;;;;;;;926.37;840.07;;;2.20;99.90;;;;;;5079513;28;20805;-82
2022/11/26 05:32:36;;;;;;;924.97;837.70;;;2.10;99.90;;;;;;5079091;28;20443;-82
2022/11/26 05:35:05;;;;;;;923.93;837.60;;;2.20;99.90;;;;;;5070620;28;20458;-82
2022/11/26 05:37:31;;;;;;;930.40;843.83;;;2.30;99.90;;;;;;5070863;28;20470;-82
2022/11/26 05:39:58;;;;;;;935.27;849.50;;;2.30;99.90;;;;;;5080077;28;20468;-82
2022/11/26 05:42:25;;;;;;;943.27;855.63;;;2.10;99.90;;;;;;5080471;28;20485;-82
2022/11/26 05:44:52;;;;;;;946.37;857.93;;;2.10;99.90;;;;;;5079937;28;20447;-83
2022/11/26 05:47:19;;;;;;;953.40;865.90;;;2.00;99.90;;;;;;5081544;28;20470;-83
2022/11/26 05:49:45;;;;;;;958.67;869.60;;;1.90;99.90;;;;;;5080713;28;20533;-79
2022/11/26 05:52:13;;;;;;;947.90;858.67;;;1.90;99.90;;;;;;5080977;28;20453;-82
2022/11/26 05:54:40;;;;;;;955.70;866.90;;;1.90;99.90;;;;;;5070781;28;20538;-82
2022/11/26 05:57:07;;;;;;;942.00;854.50;;;1.90;99.90;;;;;;5081710;28;20474;-83
2022/11/26 05:59:34;;;;;;;957.03;868.20;;;2.00;99.90;;;;;;5074436;28;20475;-82
2022/11/26 06:02:00;;;;;;;943.37;857.50;;;2.00;99.90;;;;;;5066530;28;20454;-82
2022/11/26 06:04:27;;;;;;;916.50;832.37;;;2.00;99.90;;;;;;5082780;28;20454;-83
2022/11/26 06:06:54;;;;;;;896.93;814.87;;;2.00;99.90;;;;;;5082865;28;20466;-82
2022/11/26 06:09:23;;;;;;;907.53;822.50;;;1.90;99.90;;;;;;5081725;28;20986;-86
2022/11/26 06:11:50;;;;;;;922.57;837.97;;;1.90;99.90;;;;;;5071548;28;20446;-83
2022/11/26 06:14:17;;;;;;;901.90;819.27;;;1.80;99.90;;;;;;5082673;28;21015;-83
2022/11/26 06:16:44;;;;;;;916.97;832.90;;;1.70;99.90;;;;;;5082287;28;20474;-83
2022/11/26 06:19:11;;;;;;;918.00;832.87;;;1.60;99.90;;;;;;5083499;28;20488;-83
2022/11/26 06:21:38;;;;;;;903.80;819.87;;;1.60;99.90;;;;;;5083797;28;20514;-84
2022/11/26 06:24:06;;;;;;;894.33;808.90;;;1.70;99.90;;;;;;5083058;28;20457;-83
2022/11/26 06:26:34;;;;;;;894.17;809.37;;;1.60;99.90;;;;;;5083617;28;20482;-85
2022/11/26 06:29:00;;;;;;;904.00;819.90;;;1.70;99.90;;;;;;5084604;28;20825;-83
2022/11/26 06:31:27;;;;;;;907.87;822.70;;;1.60;99.90;;;;;;5083886;28;20978;-82
2022/11/26 06:33:55;;;;;;;903.60;821.20;;;1.60;99.90;;;;;;5084266;28;20450;-82
2022/11/26 06:36:22;;;;;;;916.87;832.97;;;1.50;99.90;;;;;;5083554;28;20470;-82
2022/11/26 06:38:49;;;;;;;922.30;837.30;;;1.50;99.90;;;;;;5084066;28;20466;-83
2022/11/26 06:41:16;;;;;;;923.80;839.17;;;1.40;99.90;;;;;;5085643;28;20447;-83
2022/11/26 06:43:44;;;;;;;918.70;833.73;;;1.40;99.90;;;;;;5080362;28;20450;-85
2022/11/26 06:46:13;;;;;;;908.40;823.90;;;1.40;99.90;;;;;;5066101;28;20474;-84
2022/11/26 06:48:40;;;;;;;896.97;812.33;;;1.50;99.90;;;;;;5069171;28;20479;-83
2022/11/26 06:51:19;;;;;;;867.60;786.60;;;1.50;99.90;;;;;;5084678;28;20507;-85
2022/11/26 06:53:46;;;;;;;887.00;804.07;;;1.50;99.90;;;;;;5086083;28;20450;-81
2022/11/26 06:56:15;;;;;;;884.97;802.47;;;1.50;99.90;;;;;;5086532;28;20477;-82
2022/11/26 06:58:45;;;;;;;886.50;801.70;;;1.50;99.90;;;;;;5085947;28;20466;-83
2022/11/26 07:01:14;;;;;;;866.33;782.80;;;1.60;99.90;;;;;;5085063;28;20500;-85
2022/11/26 07:03:41;;;;;;;856.77;773.77;;;1.70;99.90;;;;;;5080888;28;20460;-82
2022/11/26 07:06:16;;;;;;;863.50;782.10;;;1.80;99.90;;;;;;5079211;28;21002;-82
2022/11/26 07:08:43;;;;;;;860.93;779.40;;;1.70;99.90;;;;;;5080848;28;20442;-82
2022/11/26 07:11:10;;;;;;;857.23;776.10;;;1.60;99.90;;;;;;5079617;28;20965;-83
2022/11/26 07:13:37;;;;;;;855.80;776.13;;;1.50;99.90;;;;;;5077426;28;20504;-83
2022/11/26 07:16:06;;;;;;;855.83;775.20;;;1.60;99.90;;;;;;5077627;28;20474;-82
2022/11/26 07:18:33;;;;;;;859.87;779.23;;;1.60;99.90;;;;;;5078268;28;20478;-83
2022/11/26 07:21:05;;;;;;;865.63;784.93;;;1.60;99.90;;;;;;5077767;28;20457;-82
2022/11/26 07:23:31;;;;;;;862.93;781.33;;;1.70;99.90;;;;;;5077699;28;20454;-83
2022/11/26 07:25:58;;;;;;;850.87;770.10;;;1.80;99.90;;;;;;5077745;28;20454;-83
2022/11/26 07:28:25;;;;;;;868.07;787.27;;;1.80;99.90;;;;;;5078156;28;20455;-85
2022/11/26 07:30:52;;;;;;;864.40;782.87;;;1.90;99.90;;;;;;5078363;28;20451;-83
2022/11/26 07:33:20;;;;;;;847.70;768.10;;;1.80;99.90;;;;;;5082163;28;20489;-83
2022/11/26 07:35:47;;;;;;;841.33;761.87;;;1.80;99.90;;;;;;5079598;28;20457;-82
2022/11/26 07:38:13;;;;;;;844.70;765.23;;;1.90;99.90;;;;;;5081938;28;21050;-85
2022/11/26 07:40:40;;;;;;;852.57;770.80;;;2.00;99.90;;;;;;5079201;28;20980;-84
2022/11/26 07:43:07;;;;;;;846.60;766.17;;;2.00;99.90;;;;;;5079520;28;20485;-82
2022/11/26 07:45:36;;;;;;;831.07;752.20;;;2.10;99.90;;;;;;5079081;28;20824;-84
2022/11/26 07:48:03;;;;;;;844.50;765.10;;;2.20;99.90;;;;;;5077162;28;20474;-83
2022/11/26 07:50:34;;;;;;;851.07;770.47;;;2.30;99.90;;;;;;5079029;28;21115;-83
2022/11/26 07:53:01;;;;;;;833.47;753.70;;;2.40;99.90;;;;;;5076551;28;20844;-83
2022/11/26 07:55:27;;;;;;;832.90;754.70;;;2.50;99.90;;;;;;5078560;28;20458;-83
2022/11/26 07:57:54;;;;;;;848.10;766.90;;;2.60;99.90;;;;;;5077365;28;20476;-83
2022/11/26 08:00:30;;;;;;;839.13;757.13;;;2.70;99.90;;;;;;5078741;28;20569;-81
2022/11/26 08:02:57;;;;;;;841.17;761.07;;;2.80;99.90;;;;;;5075991;28;20450;-83
2022/11/26 08:05:24;;;;;;;842.70;761.83;;;2.80;99.90;;;;;;5076014;28;20469;-81
2022/11/26 08:07:52;;;;;;;842.10;761.43;;;2.90;99.90;;;;;;5075360;28;20498;-81
2022/11/26 08:10:19;;;;;;;839.57;758.07;;;2.90;99.90;;;;;;5066298;28;20944;-82
2022/11/26 08:12:46;;;;;;;833.60;752.90;;;3.00;99.90;;;;;;5068065;28;20494;-82
2022/11/26 08:15:12;;;;;;;826.63;745.73;;;3.10;99.90;;;;;;5074838;28;20545;-82
2022/11/26 08:17:39;;;;;;;824.70;744.37;;;3.20;99.90;;;;;;5074323;28;20990;-81
2022/11/26 08:20:07;;;;;;;832.17;750.63;;;3.30;99.90;;;;;;5074914;28;20506;-81
2022/11/26 08:22:34;;;;;;;826.37;746.77;;;3.50;99.90;;;;;;5074372;28;20450;-84
2022/11/26 08:25:04;;;;;;;826.43;746.07;;;3.50;99.90;;;;;;5074214;28;20446;-81
2022/11/26 08:27:32;;;;;;;841.93;761.20;;;3.70;99.90;;;;;;5063435;28;20494;-81
2022/11/26 08:29:59;;;;;;;829.03;748.73;;;3.70;99.90;;;;;;5054678;28;20505;-81
2022/11/26 08:32:25;;;;;;;830.43;748.70;;;3.70;99.90;;;;;;5054596;28;20447;-81
2022/11/26 08:34:52;;;;;;;832.90;751.00;;;3.80;99.90;;;;;;5064133;28;20485;-81
2022/11/26 08:37:19;;;;;;;835.27;753.23;;;3.90;99.90;;;;;;5074413;28;20890;-81
2022/11/26 08:39:46;;;;;;;833.57;752.07;;;3.90;99.90;;;;;;5074289;28;20477;-81
2022/11/26 08:42:15;;;;;;;833.30;751.67;;;4.00;99.90;;;;;;5073655;28;20451;-82
2022/11/26 08:44:44;;;;;;;839.57;756.97;;;4.10;99.90;;;;;;5074111;28;20462;-80
2022/11/26 08:47:13;;;;;;;828.03;746.13;;;4.20;99.90;;;;;;5074560;28;20470;-81
2022/11/26 08:49:40;;;;;;;839.57;757.73;;;4.30;99.90;;;;;;5073951;28;20450;-81
2022/11/26 08:52:12;;;;;;;830.63;749.17;;;4.50;99.90;;;;;;5074304;28;20535;-81
2022/11/26 08:54:39;;;;;;;826.60;745.80;;;4.70;99.90;;;;;;5075036;28;20451;-82
2022/11/26 09:00:14;;;;;;;843.43;761.03;;;4.80;99.90;;;;;;5079338;28;20916;-84
2022/11/26 09:02:41;;;;;;;856.27;774.20;;;5.00;99.90;;;;;;5080135;28;20461;-84
2022/11/26 09:05:09;;;;;;;841.67;760.10;;;5.10;99.90;;;;;;5079589;28;20542;-86
2022/11/26 09:07:53;;;;;;;844.90;762.63;;;5.20;99.90;;;;;;5079964;28;20483;-84
2022/11/26 09:13:31;;;;;;;835.17;753.87;;;5.30;99.90;;;;;;5078437;28;20506;-84
2022/11/26 09:16:00;;;;;;;839.03;757.40;;;5.30;99.90;;;;;;5079237;28;20434;-81
2022/11/26 09:18:27;;;;;;;843.07;760.53;;;5.40;99.90;;;;;;5078127;28;20512;-83
2022/11/26 09:20:54;;;;;;;862.20;779.10;;;5.60;99.90;;;;;;5077701;28;20504;-84
2022/11/26 09:23:24;;;;;;;843.13;761.73;;;5.60;99.90;;;;;;5077809;28;20447;-83
2022/11/26 09:25:58;;;;;;;841.67;760.30;;;5.70;99.90;;;;;;5057100;28;20455;-88
2022/11/26 09:28:27;;;;;;;848.07;764.73;;;5.90;99.90;;;;;;5078555;28;20477;-85
2022/11/26 09:30:57;;;;;;;847.83;766.13;;;6.00;99.90;;;;;;5081843;28;20462;-85
2022/11/26 09:33:24;;;;;;;852.80;770.20;;;6.00;99.90;;;;;;5083445;28;20439;-85
2022/11/26 09:35:51;;;;;;;823.20;741.93;;;6.30;99.90;;;;;;5084144;28;20446;-85
2022/11/26 09:38:25;;;;;;;844.53;762.37;;;6.40;99.90;;;;;;5084921;28;20446;-85
2022/11/26 09:40:59;;;;;;;836.40;751.93;;;6.40;99.90;;;;;;5082871;28;20461;-83
2022/11/26 09:43:35;;;;;;;842.50;758.50;;;6.70;99.90;;;;;;5078302;28;21155;-84
2022/11/26 09:46:02;;;;;;;847.30;764.27;;;6.90;99.90;;;;;;5078382;28;20470;-84
2022/11/26 09:48:32;;;;;;;847.23;763.90;;;6.90;99.90;;;;;;5078736;28;20518;-83
2022/11/26 09:51:05;;;;;;;833.00;750.33;;;6.80;99.90;;;;;;5081045;28;20481;-84
2022/11/26 09:53:36;;;;;;;841.40;757.97;;;6.90;99.90;;;;;;5086338;28;20457;-84
2022/11/26 09:56:04;;;;;;;816.77;734.87;;;7.10;99.90;;;;;;5087153;28;20904;-84
2022/11/26 09:58:40;;;;;;;826.00;743.40;;;7.10;99.90;;;;;;5069512;28;20447;-83
2022/11/26 10:01:10;;;;;;;822.60;740.73;;;7.20;99.90;;;;;;5081216;28;20447;-83
2022/11/26 10:03:38;;;;;;;818.07;735.23;;;7.20;99.90;;;;;;5086096;28;20581;-84
2022/11/26 10:06:08;;;;;;;808.57;727.40;;;7.30;99.90;;;;;;5086907;28;20490;-83
2022/11/26 10:09:18;;;;;;;815.93;734.13;;;7.40;99.90;;;;;;5086426;28;20506;-83
2022/11/26 10:11:59;;;;;;;814.20;732.67;;;7.50;99.90;;;;;;5086911;28;20438;-83
2022/11/26 10:14:46;;;;;;;810.00;729.10;;;7.60;99.90;;;;;;5086954;28;20445;-82
2022/11/26 10:17:30;;;;;;;806.13;725.43;;;7.80;99.90;;;;;;5089976;28;20561;-84
2022/11/26 10:20:14;;;;;;;796.87;717.17;;;7.90;99.90;;;;;;5091325;28;20474;-82
2022/11/26 10:23:06;;;;;;;810.73;729.90;;;8.10;99.90;;;;;;5090845;28;20827;-83
2022/11/26 10:25:39;;;;;;;799.87;720.30;;;8.20;99.90;;;;;;5071381;28;20888;-83
2022/11/26 10:28:19;;;;;;;798.90;719.90;;;8.60;99.90;;;;;;5076466;28;20482;-84
2022/11/26 10:30:59;;;;;;;799.63;721.83;;;8.60;99.90;;;;;;5090867;28;20452;-83
2022/11/26 10:33:29;;;;;;;806.43;729.07;;;8.70;99.90;;;;;;5090576;28;20477;-83
2022/11/26 10:35:56;;;;;;;805.53;729.27;;;8.90;99.90;;;;;;5089835;28;20452;-83
2022/11/26 10:38:23;;;;;;;801.73;726.20;;;9.10;99.90;;;;;;5088983;28;20447;-83
2022/11/26 10:40:50;;;;;;;793.37;718.27;;;9.10;99.90;;;;;;5087737;28;20466;-83
2022/11/26 10:43:20;;;;;;;783.97;710.30;;;9.20;99.90;;;;;;5089256;28;20446;-84
2022/11/26 10:45:51;;;;;;;771.47;699.17;;;9.20;99.90;;;;;;5090106;28;20537;-84
2022/11/26 10:48:24;;;;;;;776.23;705.93;;;9.10;99.90;;;;;;5090414;28;20485;-84
2022/11/26 10:51:05;;;;;;;780.43;710.73;;;9.20;99.90;;;;;;5087198;28;20450;-84
2022/11/26 10:53:59;;;;;;;756.53;689.40;;;9.20;99.90;;;;;;5088167;28;20994;-84
2022/11/26 10:56:35;;;;;;;670.97;617.42;;;9.20;99.90;;;;;;5086999;28;20450;-83
2022/11/26 10:59:05;;;;;;;654.00;601.80;;;9.30;99.90;;;;;;5089136;28;20288;-84
2022/11/26 11:01:38;;;;;;;670.17;614.23;;;9.30;99.90;;;;;;5088635;28;20450;-84
2022/11/26 11:04:21;;;;;;;652.30;597.70;;;9.40;99.90;;;;;;5090114;28;20450;-84
2022/11/26 11:07:26;;;;;;;643.40;590.90;;;9.50;99.90;;;;;;5088806;28;20923;-83
2022/11/26 11:10:02;;;;;;;641.83;590.93;;;9.50;99.90;;;;;;5089656;28;20514;-84
2022/11/26 11:12:29;;;;;;;609.97;565.97;;;9.60;99.90;;;;;;5088236;28;20985;-84
2022/11/26 11:15:22;;;;;;;590.63;550.30;;;9.80;99.90;;;;;;5087916;28;20451;-84
2022/11/26 11:17:58;;;;;;;632.17;587.07;;;9.80;99.90;;;;;;5087528;28;20470;-85
2022/11/26 11:20:36;;;;;;;576.43;540.80;;;10.00;99.90;;;;;;5088850;28;20743;-82
2022/11/26 11:23:28;;;;;;;583.80;547.27;;;10.00;99.90;;;;;;5088683;28;20446;-86
2022/11/26 11:26:01;;;;;;;566.13;534.10;;;10.30;99.90;;;;;;5089174;28;20458;-83
2022/11/26 11:28:30;;;;;;;528.63;501.50;;;10.30;99.90;;;;;;5087236;28;20447;-82
2022/11/26 11:31:01;;;;;;;451.73;431.23;;;10.30;99.90;;;;;;5088508;28;20470;-84
2022/11/26 11:33:30;;;;;;;401.80;384.70;;;10.50;99.90;;;;;;5088726;28;20470;-84
2022/11/26 11:36:08;;;;;;;281.43;271.03;;;10.50;99.90;;;;;;5086457;28;20450;-85
2022/11/26 11:38:48;;;;;;;113.13;108.17;;;10.40;99.90;;;;;;5087560;28;20457;-84
2022/11/26 11:41:25;;;;;;;51.47;48.43;;;10.30;99.90;;;;;;5087373;28;20556;-85
2022/11/26 11:44:00;;;;;;;75.17;71.47;;;10.30;99.90;;;;;;5087113;28;20450;-84
2022/11/26 11:47:15;;;;;;;79.27;75.03;;;10.30;99.90;;;;;;5087099;28;20477;-84
2022/11/26 11:50:13;;;;;;;80.00;75.87;;;10.30;99.90;;;;;;5085601;28;20447;-84
2022/11/26 11:52:53;;;;;;;86.73;82.23;;;10.30;99.90;;;;;;5085982;28;20966;-84
2022/11/26 11:55:31;;;;;;;93.27;88.60;;;10.30;99.90;;;;;;5087482;28;20501;-85
2022/11/26 11:58:27;;;;;;;139.47;133.43;;;10.40;99.90;;;;;;5085927;28;20455;-84
2022/11/26 12:01:03;;;;;;;146.40;140.50;;;10.50;99.90;;;;;;5084540;28;20477;-86
2022/11/26 12:03:56;;;;;;;100.87;96.67;;;10.70;99.90;;;;;;5084224;28;20466;-86
2022/11/26 12:06:35;;;;;;;78.43;74.23;;;10.70;99.90;;;;;;5081645;28;20470;-85
2022/11/26 12:09:18;;;;;;;92.40;88.30;;;10.80;99.90;;;;;;5081238;28;20551;-84
2022/11/26 12:11:54;;;;;;;100.20;95.20;;;10.70;99.90;;;;;;5082135;28;20451;-85
2022/11/26 12:14:27;;;;;;;85.97;82.37;;;10.70;99.90;;;;;;5082766;28;20442;-83
2022/11/26 12:17:00;;;;;;;73.67;68.73;;;10.60;99.90;;;;;;5080024;28;20467;-84
2022/11/26 12:19:38;;;;;;;64.73;61.33;;;10.60;99.90;;;;;;5078506;28;20443;-85
2022/11/26 12:22:41;;;;;;;;;;;;;;;;;;;;;
2022/11/26 12:25:23;;;;;;;75.73;71.77;;;10.70;99.90;;;;;;5078713;28;20489;-83
2022/11/26 12:28:15;;;;;;;70.80;67.20;;;10.70;99.90;;;;;;5082805;28;20470;-84
2022/11/26 12:31:15;;;;;;;;;;;;;;;;;;;;;
2022/11/26 12:33:49;;;;;;;35.97;33.00;;;10.60;99.90;;;;;;5083506;28;20453;-84
2022/11/26 12:36:26;;;;;;;49.37;46.30;;;10.60;99.90;;;;;;5079139;28;20477;-84
2022/11/26 12:39:03;;;;;;;31.80;29.67;;;10.60;99.90;;;;;;5076804;28;20966;-84
2022/11/26 12:41:37;;;;;;;59.50;56.50;;;10.70;99.90;;;;;;5077464;28;20529;-85
2022/11/26 12:44:30;;;;;;;65.30;61.77;;;10.70;99.90;;;;;;5073769;28;20513;-84
2022/11/26 12:47:15;;;;;;;65.27;62.23;;;10.70;99.90;;;;;;5078125;28;20470;-84